createdAt,value
2023-04-18T00:01:44.757Z,102472.41
2023-04-18T00:04:12.422Z,102454.59
2023-04-18T00:06:39.435Z,102459.97
2023-04-18T00:09:07.436Z,102463.53
2023-04-18T00:11:34.174Z,102466.16
2023-04-18T00:14:00.790Z,102466.06
2023-04-18T00:16:27.614Z,102467.09
2023-04-18T00:18:54.306Z,102471.53
2023-04-18T00:21:20.935Z,102468.06
2023-04-18T00:23:47.571Z,102469.03
2023-04-18T00:26:15.597Z,102470.00
2023-04-18T00:28:42.185Z,102470.19
2023-04-18T00:31:08.803Z,102464.78
2023-04-18T00:33:35.507Z,102467.56
2023-04-18T00:36:02.315Z,102464.97
2023-04-18T00:38:28.927Z,102473.03
2023-04-18T00:40:55.597Z,102470.34
2023-04-18T00:43:24.175Z,102471.22
2023-04-18T00:45:50.916Z,102470.34
2023-04-18T00:48:18.103Z,102466.78
2023-04-18T00:50:45.376Z,102467.75
2023-04-18T00:53:12.021Z,102468.63
2023-04-18T00:55:38.882Z,102466.09
2023-04-18T00:58:05.574Z,102478.78
2023-04-18T01:00:34.046Z,102463.66
2023-04-18T01:03:00.785Z,102472.63
2023-04-18T01:05:27.792Z,102470.88
2023-04-18T01:07:55.016Z,102468.19
2023-04-18T01:10:21.870Z,102468.28
2023-04-18T01:12:48.472Z,102471.94
2023-04-18T01:15:15.142Z,102465.69
2023-04-18T01:17:43.194Z,102466.63
2023-04-18T01:20:10.756Z,102462.22
2023-04-18T01:22:37.293Z,102465.88
2023-04-18T01:25:10.238Z,102473.00
2023-04-18T01:27:36.834Z,102473.75
2023-04-18T01:30:03.842Z,102477.31
2023-04-18T01:32:30.589Z,102475.78
2023-04-18T01:34:57.136Z,102478.47
2023-04-18T01:37:23.748Z,102478.28
2023-04-18T01:39:50.498Z,102479.13
2023-04-18T01:42:18.504Z,102474.72
2023-04-18T01:44:45.078Z,102478.28
2023-04-18T01:47:11.647Z,102473.06
2023-04-18T01:49:38.246Z,102472.28
2023-04-18T01:52:04.844Z,102476.97
2023-04-18T01:54:31.420Z,102467.16
2023-04-18T01:56:57.953Z,102467.44
2023-04-18T01:59:25.910Z,102472.06
2023-04-18T02:01:52.748Z,102473.94
2023-04-18T02:04:19.418Z,102469.63
2023-04-18T02:06:45.984Z,102469.63
2023-04-18T02:09:12.649Z,102469.72
2023-04-18T02:11:39.343Z,102468.00
2023-04-18T02:14:05.938Z,102464.50
2023-04-18T02:16:34.005Z,102467.13
2023-04-18T02:19:00.748Z,102465.56
2023-04-18T02:21:27.477Z,102471.78
2023-04-18T02:23:54.108Z,102458.44
2023-04-18T02:26:20.704Z,102459.41
2023-04-18T02:28:47.403Z,102467.47
2023-04-18T02:31:15.746Z,102462.88
2023-04-18T02:33:45.509Z,102471.78
2023-04-18T02:36:12.421Z,102476.34
2023-04-18T02:38:39.079Z,102472.84
2023-04-18T02:41:05.719Z,102473.03
2023-04-18T02:43:33.570Z,102468.53
2023-04-18T02:46:00.276Z,102473.03
2023-04-18T02:48:27.005Z,102473.91
2023-04-18T02:51:02.003Z,102473.97
2023-04-18T02:53:28.678Z,102473.19
2023-04-18T02:55:55.283Z,102477.72
2023-04-18T02:58:21.872Z,102471.47
2023-04-18T03:00:48.532Z,102475.09
2023-04-18T03:03:15.232Z,102478.94
2023-04-18T03:05:42.335Z,102485.19
2023-04-18T03:08:10.340Z,102480.75
2023-04-18T03:10:37.214Z,102482.50
2023-04-18T03:13:03.896Z,102483.38
2023-04-18T03:15:30.511Z,102486.88
2023-04-18T03:17:57.367Z,102485.19
2023-04-18T03:20:24.135Z,102479.88
2023-04-18T03:22:50.849Z,102480.75
2023-04-18T03:25:18.999Z,102477.19
2023-04-18T03:27:45.715Z,102479.19
2023-04-18T03:30:12.467Z,102481.00
2023-04-18T03:32:39.068Z,102490.97
2023-04-18T03:35:06.060Z,102487.44
2023-04-18T03:37:32.630Z,102489.16
2023-04-18T03:39:59.212Z,102488.28
2023-04-18T03:42:27.271Z,102482.91
2023-04-18T03:44:53.897Z,102489.16
2023-04-18T03:47:20.468Z,102496.34
2023-04-18T03:49:47.088Z,102496.53
2023-04-18T03:52:13.688Z,102491.34
2023-04-18T03:54:40.284Z,102492.28
2023-04-18T03:57:06.872Z,102494.97
2023-04-18T03:59:34.808Z,102494.03
2023-04-18T04:02:01.557Z,102494.03
2023-04-18T04:04:28.368Z,102496.72
2023-04-18T04:06:55.085Z,102496.59
2023-04-18T04:09:21.686Z,102497.47
2023-04-18T04:11:48.348Z,102503.03
2023-04-18T04:14:15.147Z,102501.41
2023-04-18T04:16:43.400Z,102500.53
2023-04-18T04:19:10.180Z,102507.78
2023-04-18T04:21:36.768Z,102510.47
2023-04-18T04:24:03.404Z,102506.91
2023-04-18T04:26:30.107Z,102504.34
2023-04-18T04:28:56.684Z,102514.13
2023-04-18T04:31:23.504Z,102516.72
2023-04-18T04:33:51.517Z,102517.59
2023-04-18T04:36:18.978Z,102513.97
2023-04-18T04:38:45.749Z,102520.28
2023-04-18T04:41:12.521Z,102522.97
2023-04-18T04:43:39.168Z,102529.31
2023-04-18T04:46:05.841Z,102529.31
2023-04-18T04:48:32.485Z,102532.00
2023-04-18T04:51:01.221Z,102526.72
2023-04-18T04:53:29.078Z,102532.09
2023-04-18T04:55:55.763Z,102527.41
2023-04-18T04:58:22.374Z,102538.94
2023-04-18T05:00:48.982Z,102531.56
2023-04-18T05:03:15.686Z,102535.03
2023-04-18T05:05:42.731Z,102533.91
2023-04-18T05:08:10.688Z,102540.00
2023-04-18T05:10:37.408Z,102541.72
2023-04-18T05:13:04.363Z,102536.34
2023-04-18T05:15:31.120Z,102536.19
2023-04-18T05:17:57.852Z,102545.03
2023-04-18T05:20:24.729Z,102542.09
2023-04-18T05:22:51.331Z,102543.59
2023-04-18T05:25:19.657Z,102544.50
2023-04-18T05:27:46.258Z,102540.78
2023-04-18T05:30:13.214Z,102534.06
2023-04-18T05:32:39.894Z,102543.91
2023-04-18T05:35:07.441Z,102535.28
2023-04-18T05:37:34.278Z,102541.06
2023-04-18T05:40:01.296Z,102546.38
2023-04-18T05:42:29.291Z,102541.28
2023-04-18T05:44:56.026Z,102536.06
2023-04-18T05:47:22.614Z,102539.91
2023-04-18T05:49:49.490Z,102544.50
2023-04-18T05:52:16.128Z,102537.63
2023-04-18T05:54:42.955Z,102547.31
2023-04-18T05:57:09.596Z,102550.00
2023-04-18T05:59:37.686Z,102542.91
2023-04-18T06:02:04.346Z,102545.03
2023-04-18T06:04:31.126Z,102546.16
2023-04-18T06:06:58.020Z,102535.63
2023-04-18T06:09:24.584Z,102539.84
2023-04-18T06:11:51.176Z,102548.53
2023-04-18T06:14:17.848Z,102538.41
2023-04-18T06:16:45.999Z,102542.09
2023-04-18T06:19:12.563Z,102539.28
2023-04-18T06:21:39.142Z,102552.38
2023-04-18T06:24:06.686Z,102544.28
2023-04-18T06:26:33.339Z,102548.09
2023-04-18T06:28:59.978Z,102540.69
2023-04-18T06:31:26.890Z,102550.88
2023-04-18T06:33:54.961Z,102550.78
2023-04-18T06:36:21.832Z,102561.19
2023-04-18T06:38:48.913Z,102545.66
2023-04-18T06:41:15.693Z,102555.94
2023-04-18T06:43:52.068Z,102559.28
2023-04-18T06:46:28.738Z,102557.66
2023-04-18T06:48:56.855Z,102553.81
2023-04-18T06:51:23.499Z,102552.72
2023-04-18T06:53:50.140Z,102562.38
2023-04-18T06:56:16.755Z,102548.75
2023-04-18T06:58:43.650Z,102550.28
2023-04-18T07:01:10.375Z,102545.53
2023-04-18T07:03:37.088Z,102549.88
2023-04-18T07:06:05.814Z,102551.41
2023-04-18T07:08:32.409Z,102553.56
2023-04-18T07:10:59.058Z,102559.31
2023-04-18T07:13:25.675Z,102555.34
2023-04-18T07:15:52.653Z,102556.88
2023-04-18T07:18:30.177Z,102558.63
2023-04-18T07:21:05.226Z,102547.91
2023-04-18T07:23:31.913Z,102553.22
2023-04-18T07:25:58.863Z,102553.84
2023-04-18T07:28:25.577Z,102551.81
2023-04-18T07:30:52.569Z,102555.84
2023-04-18T07:33:19.523Z,102560.63
2023-04-18T07:35:46.196Z,102549.91
2023-04-18T07:38:14.321Z,102550.03
2023-04-18T07:40:40.947Z,102556.00
2023-04-18T07:43:07.838Z,102549.63
2023-04-18T07:45:34.502Z,102550.91
2023-04-18T07:48:01.314Z,102553.72
2023-04-18T07:50:28.162Z,102549.84
2023-04-18T07:52:54.770Z,102551.97
2023-04-18T07:55:22.849Z,102545.69
2023-04-18T07:57:49.555Z,102549.34
2023-04-18T08:00:16.951Z,102547.91
2023-04-18T08:02:43.787Z,102549.72
2023-04-18T08:05:10.858Z,102559.31
2023-04-18T08:07:37.805Z,102562.84
2023-04-18T08:10:05.156Z,102559.06
2023-04-18T08:12:33.235Z,102557.84
2023-04-18T08:15:00.023Z,102553.47
2023-04-18T08:17:26.770Z,102557.09
2023-04-18T08:19:53.464Z,102559.09
2023-04-18T08:22:20.132Z,102548.13
2023-04-18T08:25:00.970Z,102554.84
2023-04-18T08:27:28.096Z,102551.16
2023-04-18T08:29:56.219Z,102557.59
2023-04-18T08:32:22.912Z,102552.16
2023-04-18T08:34:49.644Z,102548.00
2023-04-18T08:37:16.380Z,102547.50
2023-04-18T08:39:43.105Z,102552.47
2023-04-18T08:42:10.486Z,102556.53
2023-04-18T08:44:37.722Z,102556.63
2023-04-18T08:47:08.217Z,102556.88
2023-04-18T08:49:34.959Z,102559.59
2023-04-18T08:52:05.566Z,102554.31
2023-04-18T08:54:32.393Z,102552.56
2023-04-18T08:57:06.007Z,102566.34
2023-04-18T08:59:32.695Z,102555.75
2023-04-18T09:01:59.467Z,102562.38
2023-04-18T09:04:35.466Z,102555.88
2023-04-18T09:07:03.145Z,102558.09
2023-04-18T09:09:41.026Z,102557.03
2023-04-18T09:12:08.892Z,102554.94
2023-04-18T09:14:35.994Z,102558.63
2023-04-18T09:17:04.063Z,102554.16
2023-04-18T09:19:30.996Z,102553.91
2023-04-18T09:22:00.508Z,102556.63
2023-04-18T09:24:27.564Z,102566.50
2023-04-18T09:26:55.745Z,102560.97
2023-04-18T09:29:23.320Z,102555.78
2023-04-18T09:31:58.246Z,102559.72
2023-04-18T09:34:28.767Z,102559.94
2023-04-18T09:37:10.718Z,102560.91
2023-04-18T09:39:38.672Z,102555.50
2023-04-18T09:42:05.998Z,102557.38
2023-04-18T09:44:32.785Z,102553.44
2023-04-18T09:46:59.592Z,102555.78
2023-04-18T09:49:26.823Z,102559.13
2023-04-18T09:51:55.126Z,102551.25
2023-04-18T09:54:24.754Z,102557.91
2023-04-18T09:56:52.494Z,102562.38
2023-04-18T09:59:36.952Z,102552.03
2023-04-18T10:02:08.497Z,102559.91
2023-04-18T10:04:36.033Z,102555.72
2023-04-18T10:07:03.346Z,102549.19
2023-04-18T10:09:34.471Z,102554.00
2023-04-18T10:12:01.198Z,102545.00
2023-04-18T10:14:30.609Z,102544.88
2023-04-18T10:16:59.245Z,102542.91
2023-04-18T10:19:27.160Z,102540.53
2023-04-18T10:21:54.808Z,102537.69
2023-04-18T10:24:48.696Z,102536.72
2023-04-18T10:27:16.093Z,102533.97
2023-04-18T10:29:51.145Z,102543.84
2023-04-18T10:32:19.362Z,102539.16
2023-04-18T10:34:47.168Z,102542.25
2023-04-18T10:37:15.930Z,102542.66
2023-04-18T10:39:55.785Z,102528.91
2023-04-18T10:43:00.519Z,102535.72
2023-04-18T10:45:28.031Z,102535.22
2023-04-18T10:48:22.263Z,102527.25
2023-04-18T10:51:14.947Z,102523.03
2023-04-18T10:53:48.376Z,102523.97
2023-04-18T10:56:16.512Z,102528.50
2023-04-18T10:58:49.251Z,102525.78
2023-04-18T11:01:24.086Z,102522.66
2023-04-18T11:03:51.711Z,102522.44
2023-04-18T11:06:18.561Z,102522.75
2023-04-18T11:08:45.557Z,102521.97
2023-04-18T11:11:13.443Z,102522.56
2023-04-18T11:13:55.750Z,102518.16
2023-04-18T11:16:26.757Z,102529.00
2023-04-18T11:18:53.467Z,102526.31
2023-04-18T11:21:20.170Z,102522.00
2023-04-18T11:23:47.442Z,102524.28
2023-04-18T11:26:14.334Z,102520.56
2023-04-18T11:28:41.776Z,102519.16
2023-04-18T11:31:09.840Z,102515.75
2023-04-18T11:33:36.435Z,102520.28
2023-04-18T11:36:03.378Z,102514.81
2023-04-18T11:38:30.565Z,102519.28
2023-04-18T11:40:57.307Z,102519.75
2023-04-18T11:43:25.198Z,102516.03
2023-04-18T11:45:53.259Z,102506.47
2023-04-18T11:48:21.635Z,102508.22
2023-04-18T11:50:48.406Z,102511.09
2023-04-18T11:53:15.086Z,102510.16
2023-04-18T11:55:41.809Z,102513.91
2023-04-18T11:58:08.491Z,102511.72
2023-04-18T12:00:36.443Z,102514.31
2023-04-18T12:03:04.522Z,102507.00
2023-04-18T12:05:34.968Z,102510.16
2023-04-18T12:08:09.758Z,102513.56
2023-04-18T12:10:36.778Z,102505.94
2023-04-18T12:13:07.170Z,102505.06
2023-04-18T12:15:37.200Z,102504.78
2023-04-18T12:18:05.614Z,102510.84
2023-04-18T12:20:38.116Z,102505.81
2023-04-18T12:23:05.631Z,102499.81
2023-04-18T12:25:32.688Z,102507.88
2023-04-18T12:28:00.682Z,102495.53
2023-04-18T12:30:28.640Z,102495.06
2023-04-18T12:32:56.558Z,102490.34
2023-04-18T12:35:23.839Z,102488.50
2023-04-18T12:37:53.640Z,102492.38
2023-04-18T12:40:21.211Z,102499.28
2023-04-18T12:42:47.945Z,102497.38
2023-04-18T12:45:15.867Z,102490.66
2023-04-18T12:47:46.300Z,102486.91
2023-04-18T12:50:16.568Z,102491.81
2023-04-18T12:52:43.281Z,102488.94
2023-04-18T12:55:12.352Z,102489.81
2023-04-18T12:57:39.158Z,102487.28
2023-04-18T13:00:07.082Z,102484.81
2023-04-18T13:02:33.808Z,102481.81
2023-04-18T13:05:00.775Z,102483.50
2023-04-18T13:07:27.604Z,102486.13
2023-04-18T13:09:54.209Z,102487.09
2023-04-18T13:12:22.267Z,102482.38
2023-04-18T13:14:49.093Z,102484.66
2023-04-18T13:17:15.764Z,102478.06
2023-04-18T13:19:42.563Z,102477.91
2023-04-18T13:22:09.223Z,102474.91
2023-04-18T13:24:35.972Z,102477.63
2023-04-18T13:27:02.622Z,102468.59
2023-04-18T13:29:30.625Z,102470.19
2023-04-18T13:31:57.294Z,102470.03
2023-04-18T13:34:24.063Z,102476.06
2023-04-18T13:36:51.277Z,102467.44
2023-04-18T13:39:18.463Z,102474.91
2023-04-18T13:41:45.117Z,102471.75
2023-04-18T13:44:11.790Z,102459.41
2023-04-18T13:46:39.888Z,102468.03
2023-04-18T13:49:06.527Z,102462.00
2023-04-18T13:51:33.630Z,102467.88
2023-04-18T13:54:00.339Z,102463.72
2023-04-18T13:56:27.329Z,102463.16
2023-04-18T13:58:54.307Z,102459.69
2023-04-18T14:01:21.833Z,102459.69
2023-04-18T14:03:50.166Z,102462.13
2023-04-18T14:06:17.048Z,102459.13
2023-04-18T14:08:43.615Z,102458.56
2023-04-18T14:11:10.281Z,102458.00
2023-04-18T14:13:36.959Z,102458.44
2023-04-18T14:16:03.857Z,102453.09
2023-04-18T14:18:30.531Z,102457.69
2023-04-18T14:20:58.565Z,102449.50
2023-04-18T14:23:25.435Z,102454.69
2023-04-18T14:25:52.199Z,102455.69
2023-04-18T14:28:18.907Z,102449.81
2023-04-18T14:30:45.724Z,102452.84
2023-04-18T14:33:12.740Z,102449.06
2023-04-18T14:35:39.432Z,102438.03
2023-04-18T14:38:07.433Z,102439.78
2023-04-18T14:40:34.166Z,102445.06
2023-04-18T14:43:00.855Z,102449.38
2023-04-18T14:45:27.566Z,102440.03
2023-04-18T14:47:54.696Z,102440.22
2023-04-18T14:50:21.516Z,102433.88
2023-04-18T14:52:48.142Z,102431.84
2023-04-18T14:55:16.218Z,102437.31
2023-04-18T14:57:42.787Z,102428.56
2023-04-18T15:00:10.190Z,102431.59
2023-04-18T15:02:37.237Z,102436.47
2023-04-18T15:05:04.493Z,102445.34
2023-04-18T15:07:31.184Z,102435.75
2023-04-18T15:09:57.901Z,102429.28
2023-04-18T15:12:26.234Z,102425.56
2023-04-18T15:14:52.816Z,102427.13
2023-04-18T15:17:19.692Z,102416.78
2023-04-18T15:19:46.444Z,102422.97
2023-04-18T15:22:13.287Z,102424.97
2023-04-18T15:24:39.872Z,102422.41
2023-04-18T15:27:06.486Z,102419.69
2023-04-18T15:29:34.461Z,102424.28
2023-04-18T15:32:01.137Z,102419.81
2023-04-18T15:34:27.782Z,102419.81
2023-04-18T15:36:54.486Z,102419.69
2023-04-18T15:39:21.060Z,102415.34
2023-04-18T15:41:47.684Z,102425.56
2023-04-18T15:44:14.608Z,102422.84
2023-04-18T15:46:42.883Z,102420.81
2023-04-18T15:49:09.478Z,102431.84
2023-04-18T15:51:36.177Z,102425.81
2023-04-18T15:54:02.920Z,102428.13
2023-04-18T15:56:31.217Z,102422.25
2023-04-18T15:58:59.910Z,102421.53
2023-04-18T16:01:26.754Z,102418.34
2023-04-18T16:03:54.886Z,102422.25
2023-04-18T16:06:21.579Z,102426.97
2023-04-18T16:08:48.237Z,102434.44
2023-04-18T16:11:15.115Z,102430.09
2023-04-18T16:13:41.703Z,102429.53
2023-04-18T16:16:08.595Z,102425.50
2023-04-18T16:18:35.219Z,102424.94
2023-04-18T16:21:03.531Z,102429.81
2023-04-18T16:23:31.160Z,102428.94
2023-04-18T16:25:57.814Z,102432.81
2023-04-18T16:28:24.474Z,102434.97
2023-04-18T16:30:52.074Z,102437.09
2023-04-18T16:33:20.197Z,102432.06
2023-04-18T16:35:46.972Z,102429.75
2023-04-18T16:38:14.998Z,102432.91
2023-04-18T16:40:41.634Z,102428.59
2023-04-18T16:43:08.338Z,102437.16
2023-04-18T16:45:35.019Z,102427.69
2023-04-18T16:48:01.755Z,102422.53
2023-04-18T16:50:28.328Z,102430.06
2023-04-18T16:52:54.958Z,102428.50
2023-04-18T16:55:23.216Z,102429.63
2023-04-18T16:57:50.264Z,102438.78
2023-04-18T17:00:17.299Z,102448.97
2023-04-18T17:02:44.101Z,102436.75
2023-04-18T17:05:10.760Z,102436.16
2023-04-18T17:07:37.322Z,102440.28
2023-04-18T17:10:04.419Z,102443.56
2023-04-18T17:12:32.402Z,102445.81
2023-04-18T17:14:58.994Z,102446.34
2023-04-18T17:17:25.664Z,102451.19
2023-04-18T17:19:52.285Z,102456.31
2023-04-18T17:22:18.948Z,102460.44
2023-04-18T17:24:45.517Z,102457.38
2023-04-18T17:27:12.112Z,102458.91
2023-04-18T17:29:40.155Z,102468.72
2023-04-18T17:32:06.846Z,102464.06
2023-04-18T17:34:33.578Z,102466.59
2023-04-18T17:37:00.229Z,102473.41
2023-04-18T17:39:26.796Z,102476.63
2023-04-18T17:41:53.378Z,102468.84
2023-04-18T17:44:20.142Z,102482.09
2023-04-18T17:46:48.944Z,102483.81
2023-04-18T17:49:17.083Z,102484.59
2023-04-18T17:51:43.645Z,102485.84
2023-04-18T17:54:10.267Z,102489.94
2023-04-18T17:56:36.944Z,102484.13
2023-04-18T17:59:03.561Z,102488.47
2023-04-18T18:01:30.245Z,102486.28
2023-04-18T18:03:58.700Z,102485.03
2023-04-18T18:06:25.476Z,102489.34
2023-04-18T18:08:52.079Z,102492.44
2023-04-18T18:11:18.884Z,102488.34
2023-04-18T18:13:45.482Z,102496.25
2023-04-18T18:16:12.215Z,102509.22
2023-04-18T18:18:38.952Z,102500.47
2023-04-18T18:21:06.888Z,102504.28
2023-04-18T18:23:33.533Z,102512.03
2023-04-18T18:26:00.403Z,102501.78
2023-04-18T18:28:27.014Z,102517.56
2023-04-18T18:30:53.821Z,102510.03
2023-04-18T18:33:20.848Z,102515.81
2023-04-18T18:35:47.464Z,102512.50
2023-04-18T18:38:15.583Z,102518.28
2023-04-18T18:40:42.126Z,102521.19
2023-04-18T18:43:08.745Z,102526.09
2023-04-18T18:45:35.306Z,102531.84
2023-04-18T18:48:01.957Z,102529.53
2023-04-18T18:50:28.610Z,102528.88
2023-04-18T18:52:55.243Z,102524.44
2023-04-18T18:55:23.493Z,102530.22
2023-04-18T18:57:50.348Z,102531.28
2023-04-18T19:00:17.067Z,102534.25
2023-04-18T19:02:43.841Z,102533.72
2023-04-18T19:05:10.725Z,102535.03
2023-04-18T19:07:37.353Z,102539.59
2023-04-18T19:10:05.229Z,102548.94
2023-04-18T19:12:33.246Z,102553.97
2023-04-18T19:15:00.334Z,102550.09
2023-04-18T19:17:27.030Z,102560.31
2023-04-18T19:19:53.684Z,102550.78
2023-04-18T19:22:20.370Z,102550.25
2023-04-18T19:24:47.130Z,102546.03
2023-04-18T19:27:13.777Z,102544.53
2023-04-18T19:29:41.800Z,102546.47
2023-04-18T19:32:08.511Z,102546.94
2023-04-18T19:34:35.159Z,102549.13
2023-04-18T19:37:01.836Z,102553.03
2023-04-18T19:39:29.084Z,102540.94
2023-04-18T19:41:55.813Z,102547.66
2023-04-18T19:44:22.433Z,102556.97
2023-04-18T19:46:50.408Z,102555.56
2023-04-18T19:49:17.208Z,102563.91
2023-04-18T19:51:43.947Z,102558.91
2023-04-18T19:54:10.622Z,102547.69
2023-04-18T19:56:37.192Z,102552.41
2023-04-18T19:59:03.826Z,102549.06
2023-04-18T20:01:30.696Z,102552.88
2023-04-18T20:03:58.915Z,102556.00
2023-04-18T20:06:25.969Z,102551.13
2023-04-18T20:08:52.902Z,102549.81
2023-04-18T20:11:19.789Z,102546.44
2023-04-18T20:13:46.447Z,102556.91
2023-04-18T20:16:13.179Z,102552.59
2023-04-18T20:18:41.052Z,102552.03
2023-04-18T20:21:09.871Z,102567.72
2023-04-18T20:23:37.390Z,102553.63
2023-04-18T20:26:04.210Z,102545.84
2023-04-18T20:28:30.895Z,102544.22
2023-04-18T20:30:58.100Z,102542.81
2023-04-18T20:33:24.781Z,102545.81
2023-04-18T20:35:51.401Z,102546.25
2023-04-18T20:38:19.383Z,102552.72
2023-04-18T20:40:45.996Z,102546.75
2023-04-18T20:43:12.565Z,102549.66
2023-04-18T20:45:39.185Z,102544.34
2023-04-18T20:48:06.226Z,102548.13
2023-04-18T20:50:32.831Z,102543.13
2023-04-18T20:52:59.420Z,102544.44
2023-04-18T20:55:27.471Z,102551.09
2023-04-18T20:57:54.134Z,102551.41
2023-04-18T21:00:20.898Z,102547.16
2023-04-18T21:02:47.637Z,102543.91
2023-04-18T21:05:14.379Z,102551.34
2023-04-18T21:07:41.048Z,102552.31
2023-04-18T21:10:08.386Z,102561.56
2023-04-18T21:12:36.379Z,102543.84
2023-04-18T21:15:03.407Z,102558.50
2023-04-18T21:17:30.022Z,102553.50
2023-04-18T21:19:56.622Z,102560.28
2023-04-18T21:22:23.189Z,102557.94
2023-04-18T21:24:49.829Z,102558.06
2023-04-18T21:27:16.386Z,102552.97
2023-04-18T21:29:44.333Z,102556.81
2023-04-18T21:32:10.969Z,102552.59
2023-04-18T21:34:37.592Z,102558.28
2023-04-18T21:37:04.274Z,102561.25
2023-04-18T21:39:30.858Z,102559.03
2023-04-18T21:41:57.530Z,102562.03
2023-04-18T21:44:24.157Z,102557.69
2023-04-18T21:46:52.185Z,102559.78
2023-04-18T21:49:18.942Z,102559.22
2023-04-18T21:51:45.526Z,102560.44
2023-04-18T21:54:12.288Z,102557.91
2023-04-18T21:56:39.134Z,102558.13
2023-04-18T21:59:05.818Z,102558.31
2023-04-18T22:01:32.525Z,102555.03
2023-04-18T22:04:00.649Z,102545.47
2023-04-18T22:06:29.647Z,102552.91
2023-04-18T22:08:56.368Z,102550.41
2023-04-18T22:11:22.940Z,102557.81
2023-04-18T22:13:49.596Z,102552.50
2023-04-18T22:16:16.484Z,102543.63
2023-04-18T22:18:43.030Z,102544.78
2023-04-18T22:21:11.026Z,102549.69
2023-04-18T22:23:37.671Z,102541.69
2023-04-18T22:26:04.497Z,102541.88
2023-04-18T22:28:31.094Z,102538.50
2023-04-18T22:30:58.175Z,102538.78
2023-04-18T22:33:25.023Z,102537.97
2023-04-18T22:35:52.364Z,102541.75
2023-04-18T22:38:20.446Z,102531.31
2023-04-18T22:40:47.207Z,102533.34
2023-04-18T22:43:13.837Z,102530.91
2023-04-18T22:45:40.464Z,102530.22
2023-04-18T22:48:07.092Z,102537.50
2023-04-18T22:50:33.674Z,102525.19
2023-04-18T22:53:00.526Z,102529.03
2023-04-18T22:55:28.561Z,102523.84
2023-04-18T22:57:55.169Z,102525.84
2023-04-18T23:00:21.906Z,102523.22
2023-04-18T23:02:48.699Z,102518.91
2023-04-18T23:05:15.395Z,102521.75
2023-04-18T23:07:42.041Z,102514.72
2023-04-18T23:10:09.851Z,102512.13
2023-04-18T23:12:37.843Z,102510.31
2023-04-18T23:15:05.540Z,102501.34
2023-04-18T23:17:32.336Z,102504.91
2023-04-18T23:19:59.066Z,102503.03
2023-04-18T23:22:25.718Z,102505.78
2023-04-18T23:24:52.470Z,102507.53
2023-04-18T23:27:19.307Z,102502.22
2023-04-18T23:29:47.917Z,102510.31
2023-04-18T23:32:14.632Z,102513.06
2023-04-18T23:34:41.248Z,102498.84
2023-04-18T23:37:08.009Z,102510.50
2023-04-18T23:39:34.620Z,102515.00
2023-04-18T23:42:01.395Z,102502.50
2023-04-18T23:44:28.010Z,102499.91
2023-04-18T23:46:56.043Z,102497.09
2023-04-18T23:49:22.620Z,102502.41
2023-04-18T23:51:49.230Z,102495.09
2023-04-18T23:54:16.042Z,102499.53
2023-04-18T23:56:42.829Z,102496.91
2023-04-18T23:59:09.472Z,102492.41
